sensor_id;sensor_type;location;lat;lon;timestamp;temperature;humidity
16417;DHT22;8317;52.186;5.688;2022-07-25T00:00:38;23.00;99.90
16417;DHT22;8317;52.186;5.688;2022-07-25T00:03:04;23.00;99.90
16417;DHT22;8317;52.186;5.688;2022-07-25T00:05:31;23.00;99.90
16417;DHT22;8317;52.186;5.688;2022-07-25T00:07:58;23.00;99.90
16417;DHT22;8317;52.186;5.688;2022-07-25T00:10:25;22.90;99.90
16417;DHT22;8317;52.186;5.688;2022-07-25T00:12:53;22.90;99.90
16417;DHT22;8317;52.186;5.688;2022-07-25T00:15:20;22.90;99.90
16417;DHT22;8317;52.186;5.688;2022-07-25T00:17:47;22.90;99.90
16417;DHT22;8317;52.186;5.688;2022-07-25T00:20:14;22.80;99.90
16417;DHT22;8317;52.186;5.688;2022-07-25T00:22:41;22.70;99.90
16417;DHT22;8317;52.186;5.688;2022-07-25T00:25:08;22.70;99.90
16417;DHT22;8317;52.186;5.688;2022-07-25T00:27:35;22.70;99.90
16417;DHT22;8317;52.186;5.688;2022-07-25T00:30:05;22.60;99.90
16417;DHT22;8317;52.186;5.688;2022-07-25T00:32:31;22.50;99.90
16417;DHT22;8317;52.186;5.688;2022-07-25T00:34:58;22.60;99.90
16417;DHT22;8317;52.186;5.688;2022-07-25T00:37:25;22.50;99.90
16417;DHT22;8317;52.186;5.688;2022-07-25T00:39:52;22.50;99.90
16417;DHT22;8317;52.186;5.688;2022-07-25T00:42:19;22.50;99.90
16417;DHT22;8317;52.186;5.688;2022-07-25T00:44:49;22.50;99.90
16417;DHT22;8317;52.186;5.688;2022-07-25T00:47:17;22.40;99.90
16417;DHT22;8317;52.186;5.688;2022-07-25T00:49:44;22.40;99.90
16417;DHT22;8317;52.186;5.688;2022-07-25T00:52:11;22.40;99.90
16417;DHT22;8317;52.186;5.688;2022-07-25T00:54:38;22.40;99.90
16417;DHT22;8317;52.186;5.688;2022-07-25T00:57:05;22.40;99.90
16417;DHT22;8317;52.186;5.688;2022-07-25T00:59:32;22.30;99.90
16417;DHT22;8317;52.186;5.688;2022-07-25T01:01:59;22.30;99.90
16417;DHT22;8317;52.186;5.688;2022-07-25T01:04:27;22.30;99.90
16417;DHT22;8317;52.186;5.688;2022-07-25T01:06:54;22.30;99.90
16417;DHT22;8317;52.186;5.688;2022-07-25T01:09:21;22.30;99.90
16417;DHT22;8317;52.186;5.688;2022-07-25T01:11:48;22.30;99.90
16417;DHT22;8317;52.186;5.688;2022-07-25T01:14:15;22.30;99.90
16417;DHT22;8317;52.186;5.688;2022-07-25T01:16:42;22.30;99.90
16417;DHT22;8317;52.186;5.688;2022-07-25T01:19:08;22.30;99.90
16417;DHT22;8317;52.186;5.688;2022-07-25T01:21:38;22.20;99.90
16417;DHT22;8317;52.186;5.688;2022-07-25T01:24:07;22.20;99.90
16417;DHT22;8317;52.186;5.688;2022-07-25T01:26:34;22.20;99.90
16417;DHT22;8317;52.186;5.688;2022-07-25T01:29:01;22.10;99.90
16417;DHT22;8317;52.186;5.688;2022-07-25T01:31:28;22.10;99.90
16417;DHT22;8317;52.186;5.688;2022-07-25T01:33:55;22.10;99.90
16417;DHT22;8317;52.186;5.688;2022-07-25T01:36:22;22.10;99.90
16417;DHT22;8317;52.186;5.688;2022-07-25T01:38:50;22.20;99.90
16417;DHT22;8317;52.186;5.688;2022-07-25T01:41:17;22.20;99.90
16417;DHT22;8317;52.186;5.688;2022-07-25T01:43:44;22.20;99.90
16417;DHT22;8317;52.186;5.688;2022-07-25T01:46:10;22.20;99.90
16417;DHT22;8317;52.186;5.688;2022-07-25T01:48:37;22.20;99.90
16417;DHT22;8317;52.186;5.688;2022-07-25T01:51:06;22.10;99.90
16417;DHT22;8317;52.186;5.688;2022-07-25T01:53:35;22.10;99.90
16417;DHT22;8317;52.186;5.688;2022-07-25T01:56:04;22.20;99.90
16417;DHT22;8317;52.186;5.688;2022-07-25T01:58:31;22.20;99.90
16417;DHT22;8317;52.186;5.688;2022-07-25T02:00:58;22.20;99.90
16417;DHT22;8317;52.186;5.688;2022-07-25T02:03:24;22.20;99.90
16417;DHT22;8317;52.186;5.688;2022-07-25T02:05:59;22.10;99.90
16417;DHT22;8317;52.186;5.688;2022-07-25T02:08:26;22.20;99.90
16417;DHT22;8317;52.186;5.688;2022-07-25T02:10:54;22.10;99.90
16417;DHT22;8317;52.186;5.688;2022-07-25T02:13:23;22.20;99.90
16417;DHT22;8317;52.186;5.688;2022-07-25T02:15:50;22.20;99.90
16417;DHT22;8317;52.186;5.688;2022-07-25T02:18:17;22.20;99.90
16417;DHT22;8317;52.186;5.688;2022-07-25T02:20:44;22.10;99.90
16417;DHT22;8317;52.186;5.688;2022-07-25T02:23:11;22.10;99.90
16417;DHT22;8317;52.186;5.688;2022-07-25T02:25:38;22.10;99.90
16417;DHT22;8317;52.186;5.688;2022-07-25T02:28:04;22.10;99.90
16417;DHT22;8317;52.186;5.688;2022-07-25T02:30:33;22.10;99.90
16417;DHT22;8317;52.186;5.688;2022-07-25T02:33:00;22.10;99.90
16417;DHT22;8317;52.186;5.688;2022-07-25T02:35:26;22.10;99.90
16417;DHT22;8317;52.186;5.688;2022-07-25T02:37:53;22.00;99.90
16417;DHT22;8317;52.186;5.688;2022-07-25T02:40:20;22.10;99.90
16417;DHT22;8317;52.186;5.688;2022-07-25T02:42:47;22.00;99.90
16417;DHT22;8317;52.186;5.688;2022-07-25T02:45:14;21.90;99.90
16417;DHT22;8317;52.186;5.688;2022-07-25T02:47:42;21.80;99.90
16417;DHT22;8317;52.186;5.688;2022-07-25T02:50:09;21.80;99.90
16417;DHT22;8317;52.186;5.688;2022-07-25T02:52:36;21.70;99.90
16417;DHT22;8317;52.186;5.688;2022-07-25T02:55:04;21.60;99.90
16417;DHT22;8317;52.186;5.688;2022-07-25T02:57:31;21.50;99.90
16417;DHT22;8317;52.186;5.688;2022-07-25T02:59:58;21.40;99.90
16417;DHT22;8317;52.186;5.688;2022-07-25T03:02:25;21.40;99.90
16417;DHT22;8317;52.186;5.688;2022-07-25T03:04:53;21.40;99.90
16417;DHT22;8317;52.186;5.688;2022-07-25T03:07:20;21.30;99.90
16417;DHT22;8317;52.186;5.688;2022-07-25T03:09:47;21.40;99.90
16417;DHT22;8317;52.186;5.688;2022-07-25T03:12:13;21.40;99.90
16417;DHT22;8317;52.186;5.688;2022-07-25T03:14:40;21.40;99.90
16417;DHT22;8317;52.186;5.688;2022-07-25T03:17:07;21.30;99.90
16417;DHT22;8317;52.186;5.688;2022-07-25T03:19:34;21.20;99.90
16417;DHT22;8317;52.186;5.688;2022-07-25T03:22:02;21.10;99.90
16417;DHT22;8317;52.186;5.688;2022-07-25T03:24:29;21.10;99.90
16417;DHT22;8317;52.186;5.688;2022-07-25T03:26:56;21.20;99.90
16417;DHT22;8317;52.186;5.688;2022-07-25T03:29:23;21.20;99.90
16417;DHT22;8317;52.186;5.688;2022-07-25T03:31:50;21.10;99.90
16417;DHT22;8317;52.186;5.688;2022-07-25T03:34:16;21.10;99.90
16417;DHT22;8317;52.186;5.688;2022-07-25T03:36:43;21.00;99.90
16417;DHT22;8317;52.186;5.688;2022-07-25T03:39:11;21.00;99.90
16417;DHT22;8317;52.186;5.688;2022-07-25T03:41:39;21.00;99.90
16417;DHT22;8317;52.186;5.688;2022-07-25T03:44:06;21.00;99.90
16417;DHT22;8317;52.186;5.688;2022-07-25T03:46:32;21.00;99.90
16417;DHT22;8317;52.186;5.688;2022-07-25T03:48:59;21.00;99.90
16417;DHT22;8317;52.186;5.688;2022-07-25T03:51:26;21.00;99.90
16417;DHT22;8317;52.186;5.688;2022-07-25T03:53:53;21.00;99.90
16417;DHT22;8317;52.186;5.688;2022-07-25T03:56:35;21.00;99.90
16417;DHT22;8317;52.186;5.688;2022-07-25T03:59:03;20.90;99.90
16417;DHT22;8317;52.186;5.688;2022-07-25T04:01:30;20.90;99.90
16417;DHT22;8317;52.186;5.688;2022-07-25T04:03:57;20.80;99.90
16417;DHT22;8317;52.186;5.688;2022-07-25T04:06:25;20.80;99.90
16417;DHT22;8317;52.186;5.688;2022-07-25T04:08:52;20.80;99.90
16417;DHT22;8317;52.186;5.688;2022-07-25T04:11:20;20.80;99.90
16417;DHT22;8317;52.186;5.688;2022-07-25T04:13:49;20.80;99.90
16417;DHT22;8317;52.186;5.688;2022-07-25T04:16:16;20.80;99.90
16417;DHT22;8317;52.186;5.688;2022-07-25T04:18:43;20.80;99.90
16417;DHT22;8317;52.186;5.688;2022-07-25T04:21:10;20.80;99.90
16417;DHT22;8317;52.186;5.688;2022-07-25T04:23:37;20.80;99.90
16417;DHT22;8317;52.186;5.688;2022-07-25T04:26:04;20.90;99.90
16417;DHT22;8317;52.186;5.688;2022-07-25T04:28:31;20.80;99.90
16417;DHT22;8317;52.186;5.688;2022-07-25T04:30:59;20.80;99.90
16417;DHT22;8317;52.186;5.688;2022-07-25T04:33:26;20.70;99.90
16417;DHT22;8317;52.186;5.688;2022-07-25T04:35:53;20.80;99.90
16417;DHT22;8317;52.186;5.688;2022-07-25T04:38:20;20.80;99.90
16417;DHT22;8317;52.186;5.688;2022-07-25T04:40:47;20.80;99.90
16417;DHT22;8317;52.186;5.688;2022-07-25T04:43:14;20.90;99.90
16417;DHT22;8317;52.186;5.688;2022-07-25T04:45:41;20.90;99.90
16417;DHT22;8317;52.186;5.688;2022-07-25T04:48:09;20.90;99.90
16417;DHT22;8317;52.186;5.688;2022-07-25T04:50:36;21.00;99.90
16417;DHT22;8317;52.186;5.688;2022-07-25T04:53:03;21.10;99.90
16417;DHT22;8317;52.186;5.688;2022-07-25T04:55:30;21.10;99.90
16417;DHT22;8317;52.186;5.688;2022-07-25T04:57:58;21.10;99.90
16417;DHT22;8317;52.186;5.688;2022-07-25T05:00:25;21.20;99.90
16417;DHT22;8317;52.186;5.688;2022-07-25T05:02:52;21.30;99.90
16417;DHT22;8317;52.186;5.688;2022-07-25T05:05:20;21.30;99.90
16417;DHT22;8317;52.186;5.688;2022-07-25T05:07:48;21.30;99.90
16417;DHT22;8317;52.186;5.688;2022-07-25T05:10:15;21.40;99.90
16417;DHT22;8317;52.186;5.688;2022-07-25T05:12:42;21.40;99.90
16417;DHT22;8317;52.186;5.688;2022-07-25T05:15:09;21.40;99.90
16417;DHT22;8317;52.186;5.688;2022-07-25T05:17:36;21.40;99.90
16417;DHT22;8317;52.186;5.688;2022-07-25T05:20:04;21.40;99.90
16417;DHT22;8317;52.186;5.688;2022-07-25T05:22:33;21.40;99.90
16417;DHT22;8317;52.186;5.688;2022-07-25T05:24:59;21.50;99.90
16417;DHT22;8317;52.186;5.688;2022-07-25T05:27:27;21.60;99.90
16417;DHT22;8317;52.186;5.688;2022-07-25T05:29:54;21.60;99.90
16417;DHT22;8317;52.186;5.688;2022-07-25T05:32:21;21.70;99.90
16417;DHT22;8317;52.186;5.688;2022-07-25T05:34:48;21.80;99.90
16417;DHT22;8317;52.186;5.688;2022-07-25T05:37:14;21.80;99.90
16417;DHT22;8317;52.186;5.688;2022-07-25T05:39:43;21.80;99.90
16417;DHT22;8317;52.186;5.688;2022-07-25T05:42:10;21.80;99.90
16417;DHT22;8317;52.186;5.688;2022-07-25T05:44:37;21.90;99.90
16417;DHT22;8317;52.186;5.688;2022-07-25T05:47:07;22.00;99.90
16417;DHT22;8317;52.186;5.688;2022-07-25T05:49:34;22.30;99.90
16417;DHT22;8317;52.186;5.688;2022-07-25T05:52:00;22.40;99.90
16417;DHT22;8317;52.186;5.688;2022-07-25T05:54:27;22.50;99.90
16417;DHT22;8317;52.186;5.688;2022-07-25T05:56:56;22.50;99.90
16417;DHT22;8317;52.186;5.688;2022-07-25T05:59:22;22.60;99.90
16417;DHT22;8317;52.186;5.688;2022-07-25T06:01:49;22.70;99.90
16417;DHT22;8317;52.186;5.688;2022-07-25T06:04:16;22.90;99.90
16417;DHT22;8317;52.186;5.688;2022-07-25T06:06:43;23.00;99.90
16417;DHT22;8317;52.186;5.688;2022-07-25T06:09:15;23.00;99.90
16417;DHT22;8317;52.186;5.688;2022-07-25T06:11:42;23.00;99.90
16417;DHT22;8317;52.186;5.688;2022-07-25T06:14:10;23.10;99.90
16417;DHT22;8317;52.186;5.688;2022-07-25T06:16:37;23.10;99.90
16417;DHT22;8317;52.186;5.688;2022-07-25T06:19:04;23.10;99.90
16417;DHT22;8317;52.186;5.688;2022-07-25T06:21:31;23.10;99.90
16417;DHT22;8317;52.186;5.688;2022-07-25T06:23:58;23.00;99.90
16417;DHT22;8317;52.186;5.688;2022-07-25T06:26:25;23.00;99.90
16417;DHT22;8317;52.186;5.688;2022-07-25T06:28:52;22.90;99.90
16417;DHT22;8317;52.186;5.688;2022-07-25T06:31:20;23.00;99.90
16417;DHT22;8317;52.186;5.688;2022-07-25T06:33:47;22.90;99.90
16417;DHT22;8317;52.186;5.688;2022-07-25T06:36:14;23.00;99.90
16417;DHT22;8317;52.186;5.688;2022-07-25T06:38:41;23.20;99.90
16417;DHT22;8317;52.186;5.688;2022-07-25T06:41:12;23.30;99.90
16417;DHT22;8317;52.186;5.688;2022-07-25T06:43:39;23.60;99.90
16417;DHT22;8317;52.186;5.688;2022-07-25T06:46:06;24.00;99.90
16417;DHT22;8317;52.186;5.688;2022-07-25T06:48:34;24.20;99.90
16417;DHT22;8317;52.186;5.688;2022-07-25T06:51:01;24.20;99.90
16417;DHT22;8317;52.186;5.688;2022-07-25T06:53:28;24.50;99.90
16417;DHT22;8317;52.186;5.688;2022-07-25T06:55:55;24.50;99.90
16417;DHT22;8317;52.186;5.688;2022-07-25T06:58:22;24.50;99.90
16417;DHT22;8317;52.186;5.688;2022-07-25T07:00:48;24.30;99.90
16417;DHT22;8317;52.186;5.688;2022-07-25T07:03:16;24.40;99.90
16417;DHT22;8317;52.186;5.688;2022-07-25T07:05:44;24.80;99.90
16417;DHT22;8317;52.186;5.688;2022-07-25T07:08:11;25.00;99.90
16417;DHT22;8317;52.186;5.688;2022-07-25T07:10:38;25.30;99.90
16417;DHT22;8317;52.186;5.688;2022-07-25T07:13:07;25.50;99.90
16417;DHT22;8317;52.186;5.688;2022-07-25T07:15:35;25.80;99.90
16417;DHT22;8317;52.186;5.688;2022-07-25T07:18:03;25.60;99.90
16417;DHT22;8317;52.186;5.688;2022-07-25T07:20:30;25.60;99.90
16417;DHT22;8317;52.186;5.688;2022-07-25T07:22:58;25.70;99.90
16417;DHT22;8317;52.186;5.688;2022-07-25T07:25:25;25.70;99.90
16417;DHT22;8317;52.186;5.688;2022-07-25T07:27:52;25.60;99.90
16417;DHT22;8317;52.186;5.688;2022-07-25T07:30:19;25.40;99.90
16417;DHT22;8317;52.186;5.688;2022-07-25T07:32:46;25.40;99.90
16417;DHT22;8317;52.186;5.688;2022-07-25T07:35:13;25.40;99.90
16417;DHT22;8317;52.186;5.688;2022-07-25T07:37:42;25.30;99.90
16417;DHT22;8317;52.186;5.688;2022-07-25T07:40:12;25.30;99.90
16417;DHT22;8317;52.186;5.688;2022-07-25T07:42:40;25.10;99.90
16417;DHT22;8317;52.186;5.688;2022-07-25T07:45:12;24.80;99.90
16417;DHT22;8317;52.186;5.688;2022-07-25T07:47:39;24.70;99.90
16417;DHT22;8317;52.186;5.688;2022-07-25T07:50:08;24.50;99.90
16417;DHT22;8317;52.186;5.688;2022-07-25T07:52:36;24.40;99.90
16417;DHT22;8317;52.186;5.688;2022-07-25T07:55:04;24.30;99.90
16417;DHT22;8317;52.186;5.688;2022-07-25T07:57:49;24.30;99.90
16417;DHT22;8317;52.186;5.688;2022-07-25T08:00:17;24.20;99.90
16417;DHT22;8317;52.186;5.688;2022-07-25T08:02:45;24.00;99.90
16417;DHT22;8317;52.186;5.688;2022-07-25T08:05:18;24.00;99.90
16417;DHT22;8317;52.186;5.688;2022-07-25T08:07:45;23.90;99.90
16417;DHT22;8317;52.186;5.688;2022-07-25T08:10:12;23.90;99.90
16417;DHT22;8317;52.186;5.688;2022-07-25T08:12:39;24.20;99.90
16417;DHT22;8317;52.186;5.688;2022-07-25T08:15:09;24.30;99.90
16417;DHT22;8317;52.186;5.688;2022-07-25T08:17:36;24.60;99.90
16417;DHT22;8317;52.186;5.688;2022-07-25T08:20:04;24.60;99.90
16417;DHT22;8317;52.186;5.688;2022-07-25T08:22:37;24.60;99.90
16417;DHT22;8317;52.186;5.688;2022-07-25T08:25:05;24.80;99.90
16417;DHT22;8317;52.186;5.688;2022-07-25T08:27:33;24.90;99.90
16417;DHT22;8317;52.186;5.688;2022-07-25T08:29:59;25.20;99.90
16417;DHT22;8317;52.186;5.688;2022-07-25T08:32:28;25.10;99.90
16417;DHT22;8317;52.186;5.688;2022-07-25T08:34:55;24.90;99.90
16417;DHT22;8317;52.186;5.688;2022-07-25T08:37:22;25.30;99.90
16417;DHT22;8317;52.186;5.688;2022-07-25T08:39:49;25.80;99.90
16417;DHT22;8317;52.186;5.688;2022-07-25T08:42:17;25.90;99.90
16417;DHT22;8317;52.186;5.688;2022-07-25T08:44:49;26.20;99.90
16417;DHT22;8317;52.186;5.688;2022-07-25T08:47:18;26.30;99.90
16417;DHT22;8317;52.186;5.688;2022-07-25T08:49:47;26.50;99.90
16417;DHT22;8317;52.186;5.688;2022-07-25T08:52:14;26.80;99.90
16417;DHT22;8317;52.186;5.688;2022-07-25T08:54:42;26.70;99.90
16417;DHT22;8317;52.186;5.688;2022-07-25T08:57:10;26.50;99.90
16417;DHT22;8317;52.186;5.688;2022-07-25T08:59:37;26.00;99.90
16417;DHT22;8317;52.186;5.688;2022-07-25T09:02:04;25.70;99.90
16417;DHT22;8317;52.186;5.688;2022-07-25T09:04:33;25.20;99.90
16417;DHT22;8317;52.186;5.688;2022-07-25T09:07:02;24.90;99.90
16417;DHT22;8317;52.186;5.688;2022-07-25T09:09:31;24.60;99.90
16417;DHT22;8317;52.186;5.688;2022-07-25T09:11:58;24.30;99.90
16417;DHT22;8317;52.186;5.688;2022-07-25T09:14:26;24.50;99.90
16417;DHT22;8317;52.186;5.688;2022-07-25T09:16:54;24.90;99.90
16417;DHT22;8317;52.186;5.688;2022-07-25T09:19:23;25.00;99.90
16417;DHT22;8317;52.186;5.688;2022-07-25T09:21:59;25.50;99.90
16417;DHT22;8317;52.186;5.688;2022-07-25T09:24:27;25.90;99.90
16417;DHT22;8317;52.186;5.688;2022-07-25T09:26:57;26.40;99.90
16417;DHT22;8317;52.186;5.688;2022-07-25T09:29:29;26.80;99.90
16417;DHT22;8317;52.186;5.688;2022-07-25T09:31:57;27.10;99.90
16417;DHT22;8317;52.186;5.688;2022-07-25T09:34:37;27.40;99.90
16417;DHT22;8317;52.186;5.688;2022-07-25T09:37:07;27.50;99.90
16417;DHT22;8317;52.186;5.688;2022-07-25T09:39:38;26.80;99.90
16417;DHT22;8317;52.186;5.688;2022-07-25T09:42:20;26.40;99.90
16417;DHT22;8317;52.186;5.688;2022-07-25T09:44:57;26.00;99.90
16417;DHT22;8317;52.186;5.688;2022-07-25T09:47:25;26.10;99.90
16417;DHT22;8317;52.186;5.688;2022-07-25T09:49:52;26.30;99.90
16417;DHT22;8317;52.186;5.688;2022-07-25T09:52:19;26.40;99.90
16417;DHT22;8317;52.186;5.688;2022-07-25T09:54:48;26.50;99.90
16417;DHT22;8317;52.186;5.688;2022-07-25T09:57:15;26.40;99.90
16417;DHT22;8317;52.186;5.688;2022-07-25T09:59:42;26.30;99.90
16417;DHT22;8317;52.186;5.688;2022-07-25T10:02:13;26.20;99.90
16417;DHT22;8317;52.186;5.688;2022-07-25T10:04:48;26.10;99.90
16417;DHT22;8317;52.186;5.688;2022-07-25T10:07:20;25.90;99.90
16417;DHT22;8317;52.186;5.688;2022-07-25T10:09:52;26.00;99.90
16417;DHT22;8317;52.186;5.688;2022-07-25T10:12:22;26.00;99.90
16417;DHT22;8317;52.186;5.688;2022-07-25T10:15:07;25.90;99.90
16417;DHT22;8317;52.186;5.688;2022-07-25T10:17:36;26.10;99.90
16417;DHT22;8317;52.186;5.688;2022-07-25T10:20:05;26.00;99.90
16417;DHT22;8317;52.186;5.688;2022-07-25T10:22:37;26.00;99.90
16417;DHT22;8317;52.186;5.688;2022-07-25T10:25:12;26.40;99.90
16417;DHT22;8317;52.186;5.688;2022-07-25T10:27:42;26.50;99.90
16417;DHT22;8317;52.186;5.688;2022-07-25T10:30:19;26.90;99.90
16417;DHT22;8317;52.186;5.688;2022-07-25T10:32:55;26.80;99.90
16417;DHT22;8317;52.186;5.688;2022-07-25T10:35:22;26.90;99.90
16417;DHT22;8317;52.186;5.688;2022-07-25T10:37:51;27.00;99.90
16417;DHT22;8317;52.186;5.688;2022-07-25T10:40:27;27.00;99.90
16417;DHT22;8317;52.186;5.688;2022-07-25T10:42:59;26.80;99.90
16417;DHT22;8317;52.186;5.688;2022-07-25T10:45:35;26.60;99.90
16417;DHT22;8317;52.186;5.688;2022-07-25T10:48:06;26.50;99.90
16417;DHT22;8317;52.186;5.688;2022-07-25T10:50:34;26.40;99.90
16417;DHT22;8317;52.186;5.688;2022-07-25T10:53:00;26.40;99.90
16417;DHT22;8317;52.186;5.688;2022-07-25T10:55:34;26.50;99.90
16417;DHT22;8317;52.186;5.688;2022-07-25T10:58:04;26.30;99.90
16417;DHT22;8317;52.186;5.688;2022-07-25T11:00:32;26.40;99.90
16417;DHT22;8317;52.186;5.688;2022-07-25T11:02:59;26.30;99.90
16417;DHT22;8317;52.186;5.688;2022-07-25T11:05:26;26.20;99.90
16417;DHT22;8317;52.186;5.688;2022-07-25T11:07:54;26.10;99.90
16417;DHT22;8317;52.186;5.688;2022-07-25T11:10:25;26.00;99.90
16417;DHT22;8317;52.186;5.688;2022-07-25T11:12:54;26.30;99.90
16417;DHT22;8317;52.186;5.688;2022-07-25T11:15:22;26.40;99.90
16417;DHT22;8317;52.186;5.688;2022-07-25T11:17:51;26.40;99.90
16417;DHT22;8317;52.186;5.688;2022-07-25T11:20:19;26.30;99.90
16417;DHT22;8317;52.186;5.688;2022-07-25T11:22:53;26.20;99.90
16417;DHT22;8317;52.186;5.688;2022-07-25T11:25:22;26.10;99.90
16417;DHT22;8317;52.186;5.688;2022-07-25T11:27:54;26.00;99.90
16417;DHT22;8317;52.186;5.688;2022-07-25T11:30:22;26.10;99.90
16417;DHT22;8317;52.186;5.688;2022-07-25T11:32:51;25.90;99.90
16417;DHT22;8317;52.186;5.688;2022-07-25T11:35:21;25.70;99.90
16417;DHT22;8317;52.186;5.688;2022-07-25T11:37:49;25.50;99.90
16417;DHT22;8317;52.186;5.688;2022-07-25T11:40:18;25.30;99.90
16417;DHT22;8317;52.186;5.688;2022-07-25T11:42:46;25.30;99.90
16417;DHT22;8317;52.186;5.688;2022-07-25T11:45:19;25.30;99.90
16417;DHT22;8317;52.186;5.688;2022-07-25T11:47:48;25.30;99.90
16417;DHT22;8317;52.186;5.688;2022-07-25T11:50:15;25.40;99.90
16417;DHT22;8317;52.186;5.688;2022-07-25T11:52:42;25.60;99.90
16417;DHT22;8317;52.186;5.688;2022-07-25T11:55:13;25.70;99.90
16417;DHT22;8317;52.186;5.688;2022-07-25T11:57:43;25.80;99.90
16417;DHT22;8317;52.186;5.688;2022-07-25T12:00:16;25.70;99.90
16417;DHT22;8317;52.186;5.688;2022-07-25T12:02:45;25.60;99.90
16417;DHT22;8317;52.186;5.688;2022-07-25T12:05:13;25.50;99.90
16417;DHT22;8317;52.186;5.688;2022-07-25T12:07:42;25.50;99.90
16417;DHT22;8317;52.186;5.688;2022-07-25T12:10:12;25.40;99.90
16417;DHT22;8317;52.186;5.688;2022-07-25T12:12:42;25.30;99.90
16417;DHT22;8317;52.186;5.688;2022-07-25T12:15:10;25.10;99.90
16417;DHT22;8317;52.186;5.688;2022-07-25T12:17:38;25.00;99.90
16417;DHT22;8317;52.186;5.688;2022-07-25T12:20:12;24.80;99.90
16417;DHT22;8317;52.186;5.688;2022-07-25T12:22:39;24.70;99.90
16417;DHT22;8317;52.186;5.688;2022-07-25T12:25:07;24.60;99.90
16417;DHT22;8317;52.186;5.688;2022-07-25T12:27:34;24.50;99.90
16417;DHT22;8317;52.186;5.688;2022-07-25T12:30:00;24.30;99.90
16417;DHT22;8317;52.186;5.688;2022-07-25T12:32:27;24.20;99.90
16417;DHT22;8317;52.186;5.688;2022-07-25T12:34:56;24.10;99.90
16417;DHT22;8317;52.186;5.688;2022-07-25T12:37:24;24.00;99.90
16417;DHT22;8317;52.186;5.688;2022-07-25T12:39:51;24.00;99.90
16417;DHT22;8317;52.186;5.688;2022-07-25T12:42:18;23.90;99.90
16417;DHT22;8317;52.186;5.688;2022-07-25T12:44:45;23.70;99.90
16417;DHT22;8317;52.186;5.688;2022-07-25T12:47:12;23.60;99.90
16417;DHT22;8317;52.186;5.688;2022-07-25T12:49:39;23.50;99.90
16417;DHT22;8317;52.186;5.688;2022-07-25T12:52:06;23.40;99.90
16417;DHT22;8317;52.186;5.688;2022-07-25T12:54:34;23.20;99.90
16417;DHT22;8317;52.186;5.688;2022-07-25T12:57:01;23.30;99.90
16417;DHT22;8317;52.186;5.688;2022-07-25T12:59:28;23.30;99.90
16417;DHT22;8317;52.186;5.688;2022-07-25T13:01:55;23.30;99.90
16417;DHT22;8317;52.186;5.688;2022-07-25T13:04:22;23.20;99.90
16417;DHT22;8317;52.186;5.688;2022-07-25T13:06:50;23.30;99.90
16417;DHT22;8317;52.186;5.688;2022-07-25T13:09:17;23.50;99.90
16417;DHT22;8317;52.186;5.688;2022-07-25T13:11:45;23.80;99.90
16417;DHT22;8317;52.186;5.688;2022-07-25T13:14:12;23.90;99.90
16417;DHT22;8317;52.186;5.688;2022-07-25T13:16:40;24.20;99.90
16417;DHT22;8317;52.186;5.688;2022-07-25T13:19:07;24.60;99.90
16417;DHT22;8317;52.186;5.688;2022-07-25T13:21:34;25.00;99.90
16417;DHT22;8317;52.186;5.688;2022-07-25T13:24:02;25.30;99.90
16417;DHT22;8317;52.186;5.688;2022-07-25T13:26:30;25.30;99.90
16417;DHT22;8317;52.186;5.688;2022-07-25T13:28:58;25.30;99.90
16417;DHT22;8317;52.186;5.688;2022-07-25T13:31:25;25.20;99.90
16417;DHT22;8317;52.186;5.688;2022-07-25T13:33:52;25.40;99.90
16417;DHT22;8317;52.186;5.688;2022-07-25T13:36:19;25.60;99.90
16417;DHT22;8317;52.186;5.688;2022-07-25T13:38:45;25.60;99.90
16417;DHT22;8317;52.186;5.688;2022-07-25T13:41:13;25.50;99.90
16417;DHT22;8317;52.186;5.688;2022-07-25T13:43:40;25.50;99.90
16417;DHT22;8317;52.186;5.688;2022-07-25T13:46:09;25.50;99.90
16417;DHT22;8317;52.186;5.688;2022-07-25T13:48:36;25.60;99.90
16417;DHT22;8317;52.186;5.688;2022-07-25T13:51:03;25.80;99.90
16417;DHT22;8317;52.186;5.688;2022-07-25T13:53:30;25.80;99.90
16417;DHT22;8317;52.186;5.688;2022-07-25T13:55:58;26.00;99.90
16417;DHT22;8317;52.186;5.688;2022-07-25T13:58:25;25.90;99.90
16417;DHT22;8317;52.186;5.688;2022-07-25T14:00:52;25.50;99.90
16417;DHT22;8317;52.186;5.688;2022-07-25T14:03:20;25.60;99.90
16417;DHT22;8317;52.186;5.688;2022-07-25T14:05:47;25.40;99.90
16417;DHT22;8317;52.186;5.688;2022-07-25T14:08:14;25.20;99.90
16417;DHT22;8317;52.186;5.688;2022-07-25T14:10:41;25.20;99.90
16417;DHT22;8317;52.186;5.688;2022-07-25T14:13:08;25.40;99.90
16417;DHT22;8317;52.186;5.688;2022-07-25T14:15:35;25.30;99.90
16417;DHT22;8317;52.186;5.688;2022-07-25T14:18:02;25.50;99.90
16417;DHT22;8317;52.186;5.688;2022-07-25T14:20:31;25.60;99.90
16417;DHT22;8317;52.186;5.688;2022-07-25T14:22:58;25.40;99.90
16417;DHT22;8317;52.186;5.688;2022-07-25T14:25:25;25.30;99.90
16417;DHT22;8317;52.186;5.688;2022-07-25T14:27:52;25.30;99.90
16417;DHT22;8317;52.186;5.688;2022-07-25T14:30:19;25.50;99.90
16417;DHT22;8317;52.186;5.688;2022-07-25T14:32:46;25.50;99.90
16417;DHT22;8317;52.186;5.688;2022-07-25T14:35:12;25.60;99.90
16417;DHT22;8317;52.186;5.688;2022-07-25T14:37:41;25.50;99.90
16417;DHT22;8317;52.186;5.688;2022-07-25T14:40:09;25.40;99.90
16417;DHT22;8317;52.186;5.688;2022-07-25T14:42:36;25.40;99.90
16417;DHT22;8317;52.186;5.688;2022-07-25T14:45:05;25.20;99.90
16417;DHT22;8317;52.186;5.688;2022-07-25T14:47:32;25.20;99.90
16417;DHT22;8317;52.186;5.688;2022-07-25T14:50:00;25.10;99.90
16417;DHT22;8317;52.186;5.688;2022-07-25T14:52:27;25.30;99.90
16417;DHT22;8317;52.186;5.688;2022-07-25T14:54:55;25.50;99.90
16417;DHT22;8317;52.186;5.688;2022-07-25T14:57:22;25.30;99.90
16417;DHT22;8317;52.186;5.688;2022-07-25T14:59:49;25.40;99.90
16417;DHT22;8317;52.186;5.688;2022-07-25T15:02:16;25.50;99.90
16417;DHT22;8317;52.186;5.688;2022-07-25T15:04:43;25.40;99.90
16417;DHT22;8317;52.186;5.688;2022-07-25T15:07:10;25.40;99.90
16417;DHT22;8317;52.186;5.688;2022-07-25T15:09:37;25.30;99.90
16417;DHT22;8317;52.186;5.688;2022-07-25T15:12:05;25.20;99.90
16417;DHT22;8317;52.186;5.688;2022-07-25T15:14:32;24.90;99.90
16417;DHT22;8317;52.186;5.688;2022-07-25T15:17:00;24.90;99.90
16417;DHT22;8317;52.186;5.688;2022-07-25T15:19:27;25.00;99.90
16417;DHT22;8317;52.186;5.688;2022-07-25T15:21:54;25.10;99.90
16417;DHT22;8317;52.186;5.688;2022-07-25T15:24:21;25.10;99.90
16417;DHT22;8317;52.186;5.688;2022-07-25T15:26:47;25.20;99.90
16417;DHT22;8317;52.186;5.688;2022-07-25T15:29:16;25.10;99.90
16417;DHT22;8317;52.186;5.688;2022-07-25T15:31:45;25.00;99.90
16417;DHT22;8317;52.186;5.688;2022-07-25T15:34:12;25.00;99.90
16417;DHT22;8317;52.186;5.688;2022-07-25T15:36:39;24.90;99.90
16417;DHT22;8317;52.186;5.688;2022-07-25T15:39:06;25.00;99.90
16417;DHT22;8317;52.186;5.688;2022-07-25T15:41:33;25.00;99.90
16417;DHT22;8317;52.186;5.688;2022-07-25T15:44:00;25.10;99.90
16417;DHT22;8317;52.186;5.688;2022-07-25T15:46:29;25.10;99.90
16417;DHT22;8317;52.186;5.688;2022-07-25T15:48:57;24.90;99.90